createdAt,value
2023-03-19T00:00:00.824Z,25.92
2023-03-19T00:01:07.802Z,24.65
2023-03-19T00:02:17.536Z,24.60
2023-03-19T00:03:20.190Z,24.17
2023-03-19T00:04:23.774Z,24.88
2023-03-19T00:05:25.597Z,25.43
2023-03-19T00:06:27.635Z,25.13
2023-03-19T00:07:29.461Z,24.18
2023-03-19T00:08:31.435Z,25.05
2023-03-19T00:09:33.533Z,23.65
2023-03-19T00:10:39.612Z,24.72
2023-03-19T00:11:41.490Z,24.57
2023-03-19T00:12:43.337Z,24.07
2023-03-19T00:13:45.407Z,24.22
2023-03-19T00:14:47.374Z,25.73
2023-03-19T00:15:49.303Z,26.00
2023-03-19T00:16:51.731Z,24.73
2023-03-19T00:17:54.297Z,24.38
2023-03-19T00:18:57.420Z,25.55
2023-03-19T00:19:59.254Z,24.83
2023-03-19T00:21:01.626Z,23.62
2023-03-19T00:22:04.156Z,24.27
2023-03-19T00:23:06.421Z,24.67
2023-03-19T00:24:10.006Z,23.75
2023-03-19T00:25:11.863Z,23.48
2023-03-19T00:26:13.740Z,24.07
2023-03-19T00:27:15.953Z,24.00
2023-03-19T00:28:18.773Z,24.43
2023-03-19T00:29:20.818Z,24.52
2023-03-19T00:30:22.935Z,24.40
2023-03-19T00:31:26.137Z,24.93
2023-03-19T00:32:28.339Z,24.48
2023-03-19T00:33:31.120Z,24.08
2023-03-19T00:34:32.988Z,23.78
2023-03-19T00:35:35.044Z,24.22
2023-03-19T00:36:37.495Z,24.33
2023-03-19T00:37:39.421Z,25.50
2023-03-19T00:38:41.292Z,24.45
2023-03-19T00:39:43.340Z,23.97
2023-03-19T00:40:45.122Z,24.27
2023-03-19T00:41:50.562Z,24.97
2023-03-19T00:42:52.453Z,25.02
2023-03-19T00:43:55.795Z,24.08
2023-03-19T00:44:57.630Z,24.68
2023-03-19T00:45:59.864Z,23.50
2023-03-19T00:47:01.844Z,23.92
2023-03-19T00:48:03.833Z,24.45
2023-03-19T00:49:05.963Z,23.93
2023-03-19T00:50:08.324Z,24.78
2023-03-19T00:51:11.488Z,24.95
2023-03-19T00:52:13.319Z,24.70
2023-03-19T00:53:15.122Z,24.17
2023-03-19T00:54:17.032Z,24.93
2023-03-19T00:55:19.115Z,24.95
2023-03-19T00:56:21.287Z,25.32
2023-03-19T00:57:23.421Z,26.42
2023-03-19T00:58:25.488Z,24.47
2023-03-19T00:59:27.627Z,24.55
2023-03-19T01:00:29.692Z,24.97
2023-03-19T01:01:32.284Z,25.53
2023-03-19T01:02:34.250Z,25.95
2023-03-19T01:03:36.649Z,25.27
2023-03-19T01:04:38.606Z,24.52
2023-03-19T01:05:40.422Z,24.87
2023-03-19T01:06:42.308Z,25.18
2023-03-19T01:07:44.377Z,25.05
2023-03-19T01:08:46.385Z,26.35
2023-03-19T01:09:48.219Z,25.22
2023-03-19T01:10:50.090Z,23.92
2023-03-19T01:11:52.216Z,23.65
2023-03-19T01:12:54.018Z,24.08
2023-03-19T01:13:55.993Z,24.95
2023-03-19T01:14:57.751Z,23.90
2023-03-19T01:15:59.593Z,24.52
2023-03-19T01:17:01.457Z,24.60
2023-03-19T01:18:04.649Z,23.65
2023-03-19T01:19:06.478Z,24.20
2023-03-19T01:20:13.210Z,24.73
2023-03-19T01:21:14.960Z,25.52
2023-03-19T01:22:17.627Z,24.73
2023-03-19T01:23:19.411Z,24.12
2023-03-19T01:24:21.664Z,25.28
2023-03-19T01:25:23.477Z,24.85
2023-03-19T01:26:25.526Z,23.10
2023-03-19T01:27:27.416Z,23.05
2023-03-19T01:28:29.228Z,22.55
2023-03-19T01:29:31.146Z,22.65
2023-03-19T01:30:33.364Z,22.67
2023-03-19T01:31:37.363Z,23.40
2023-03-19T01:32:39.542Z,22.58
2023-03-19T01:33:41.578Z,21.67
2023-03-19T01:34:43.421Z,21.92
2023-03-19T01:35:48.068Z,21.97
2023-03-19T01:36:50.464Z,23.07
2023-03-19T01:37:52.400Z,21.95
2023-03-19T01:38:54.722Z,23.30
2023-03-19T01:39:56.536Z,22.67
2023-03-19T01:40:58.346Z,21.83
2023-03-19T01:42:03.625Z,22.02
2023-03-19T01:43:15.131Z,21.30
2023-03-19T01:44:31.676Z,20.37
2023-03-19T01:45:39.072Z,22.42
2023-03-19T01:46:41.274Z,23.23
2023-03-19T01:47:44.429Z,22.40
2023-03-19T01:48:49.066Z,22.12
2023-03-19T01:49:54.692Z,23.73
2023-03-19T01:50:57.179Z,23.43
2023-03-19T01:52:02.903Z,23.78
2023-03-19T01:53:04.830Z,23.47
2023-03-19T01:54:10.599Z,24.30
2023-03-19T01:55:12.628Z,24.95
2023-03-19T01:56:17.429Z,24.32
2023-03-19T01:57:21.098Z,23.97
2023-03-19T01:58:24.959Z,23.00
2023-03-19T01:59:32.011Z,22.78
2023-03-19T02:00:35.861Z,23.82
2023-03-19T02:01:58.633Z,23.68
2023-03-19T02:03:01.591Z,23.38
2023-03-19T02:04:04.075Z,23.33
2023-03-19T02:05:13.140Z,24.73
2023-03-19T02:06:15.476Z,23.35
2023-03-19T02:07:17.506Z,23.87
2023-03-19T02:08:22.974Z,23.18
2023-03-19T02:09:26.600Z,22.52
2023-03-19T02:10:29.501Z,23.72
2023-03-19T02:11:32.389Z,23.22
2023-03-19T02:12:34.880Z,23.28
2023-03-19T02:13:37.100Z,23.77
2023-03-19T02:14:38.968Z,24.10
2023-03-19T02:15:41.180Z,24.48
2023-03-19T02:16:43.209Z,22.77
2023-03-19T02:17:45.457Z,23.55
2023-03-19T02:18:47.530Z,24.33
2023-03-19T02:20:22.441Z,23.97
2023-03-19T02:21:24.293Z,23.90
2023-03-19T02:22:28.389Z,22.78
2023-03-19T02:23:48.466Z,23.30
2023-03-19T02:25:18.509Z,23.42
2023-03-19T02:26:24.921Z,23.92
2023-03-19T02:27:26.844Z,24.30
2023-03-19T02:28:29.638Z,24.25
2023-03-19T02:29:31.666Z,23.67
2023-03-19T02:30:34.502Z,25.10
2023-03-19T02:31:37.124Z,24.75
2023-03-19T02:32:39.069Z,23.90
2023-03-19T02:33:41.057Z,24.63
2023-03-19T02:34:44.198Z,23.82
2023-03-19T02:35:49.337Z,24.67
2023-03-19T02:36:54.524Z,25.15
2023-03-19T02:37:56.473Z,25.32
2023-03-19T02:39:01.047Z,23.88
2023-03-19T02:40:14.567Z,24.72
2023-03-19T02:41:16.688Z,25.28
2023-03-19T02:42:20.058Z,24.52
2023-03-19T02:43:22.817Z,24.45
2023-03-19T02:44:24.734Z,24.35
2023-03-19T02:45:29.766Z,24.43
2023-03-19T02:46:31.993Z,25.83
2023-03-19T02:47:33.793Z,25.87
2023-03-19T02:48:36.699Z,25.60
2023-03-19T02:49:38.577Z,25.45
2023-03-19T02:50:40.849Z,25.65
2023-03-19T02:51:42.909Z,24.37
2023-03-19T02:52:44.740Z,24.83
2023-03-19T02:53:46.812Z,24.00
2023-03-19T02:54:48.896Z,25.25
2023-03-19T02:55:51.221Z,24.87
2023-03-19T02:56:53.361Z,25.32
2023-03-19T02:57:55.757Z,25.73
2023-03-19T02:58:57.800Z,24.75
2023-03-19T02:59:59.585Z,24.63
2023-03-19T03:01:01.550Z,24.48
2023-03-19T03:02:03.357Z,24.07
2023-03-19T03:03:06.823Z,25.00
2023-03-19T03:04:08.860Z,25.32
2023-03-19T03:05:10.709Z,25.17
2023-03-19T03:06:12.719Z,25.32
2023-03-19T03:07:14.581Z,26.48
2023-03-19T03:08:16.816Z,25.37
2023-03-19T03:09:19.179Z,25.30
2023-03-19T03:10:21.008Z,25.87
2023-03-19T03:11:22.911Z,26.78
2023-03-19T03:12:25.088Z,26.35
2023-03-19T03:13:27.896Z,26.60
2023-03-19T03:14:29.855Z,25.22
2023-03-19T03:15:31.752Z,24.92
2023-03-19T03:16:33.642Z,25.97
2023-03-19T03:17:39.788Z,27.20
2023-03-19T03:18:42.375Z,26.37
2023-03-19T03:19:44.166Z,25.30
2023-03-19T03:20:46.845Z,25.35
2023-03-19T03:21:48.607Z,27.12
2023-03-19T03:22:50.581Z,25.47
2023-03-19T03:23:52.497Z,26.83
2023-03-19T03:24:54.404Z,27.92
2023-03-19T03:25:56.212Z,30.37
2023-03-19T03:26:58.018Z,31.90
2023-03-19T03:27:59.999Z,31.45
2023-03-19T03:29:01.866Z,30.97
2023-03-19T03:30:05.499Z,30.35
2023-03-19T03:31:07.964Z,30.93
2023-03-19T03:32:10.056Z,29.73
2023-03-19T03:33:12.396Z,29.98
2023-03-19T03:34:14.189Z,29.03
2023-03-19T03:35:21.896Z,28.45
2023-03-19T03:36:24.532Z,28.05
2023-03-19T03:37:26.523Z,28.78
2023-03-19T03:38:28.777Z,27.42
2023-03-19T03:39:30.754Z,26.13
2023-03-19T03:40:33.887Z,26.05
2023-03-19T03:41:36.545Z,25.82
2023-03-19T03:42:38.328Z,26.58
2023-03-19T03:43:41.088Z,25.25
2023-03-19T03:44:42.952Z,26.32
2023-03-19T03:45:44.860Z,25.88
2023-03-19T03:46:46.851Z,25.35
2023-03-19T03:47:48.780Z,25.98
2023-03-19T03:48:51.487Z,24.72
2023-03-19T03:49:53.309Z,24.82
2023-03-19T03:50:55.110Z,26.02
2023-03-19T03:51:57.373Z,25.52
2023-03-19T03:52:59.388Z,26.05
2023-03-19T03:54:01.317Z,26.12
2023-03-19T03:55:03.589Z,26.05
2023-03-19T03:56:05.875Z,27.85
2023-03-19T03:57:08.157Z,28.80
2023-03-19T03:58:10.084Z,27.93
2023-03-19T03:59:12.457Z,32.63
2023-03-19T04:00:14.514Z,41.77
2023-03-19T04:01:17.421Z,38.68
2023-03-19T04:02:19.502Z,34.83
2023-03-19T04:03:22.502Z,28.85
2023-03-19T04:04:24.634Z,26.73
2023-03-19T04:05:26.415Z,26.48
2023-03-19T04:06:28.841Z,27.25
2023-03-19T04:07:30.626Z,26.98
2023-03-19T04:08:32.548Z,27.07
2023-03-19T04:09:34.352Z,27.53
2023-03-19T04:10:39.941Z,28.48
2023-03-19T04:11:42.288Z,29.00
2023-03-19T04:12:45.941Z,29.28
2023-03-19T04:13:47.747Z,28.98
2023-03-19T04:14:49.492Z,29.27
2023-03-19T04:15:51.593Z,28.72
2023-03-19T04:16:53.715Z,29.57
2023-03-19T04:17:55.627Z,29.75
2023-03-19T04:18:57.517Z,28.90
2023-03-19T04:19:59.512Z,30.03
2023-03-19T04:21:01.605Z,29.38
2023-03-19T04:22:03.656Z,30.58
2023-03-19T04:23:05.476Z,30.03
2023-03-19T04:24:07.526Z,29.65
2023-03-19T04:25:09.625Z,30.07
2023-03-19T04:26:12.305Z,29.82
2023-03-19T04:27:14.139Z,30.20
2023-03-19T04:28:16.414Z,31.27
2023-03-19T04:29:18.828Z,30.30
2023-03-19T04:30:21.161Z,29.90
2023-03-19T04:31:23.069Z,29.85
2023-03-19T04:32:25.181Z,30.47
2023-03-19T04:33:27.052Z,30.83
2023-03-19T04:34:28.873Z,30.55
2023-03-19T04:35:31.378Z,29.73
2023-03-19T04:36:33.463Z,30.85
2023-03-19T04:37:35.481Z,30.43
2023-03-19T04:38:38.221Z,29.03
2023-03-19T04:39:40.029Z,29.12
2023-03-19T04:40:43.097Z,29.10
2023-03-19T04:41:45.288Z,29.28
2023-03-19T04:42:47.097Z,29.88
2023-03-19T04:43:48.876Z,31.60
2023-03-19T04:44:50.716Z,29.38
2023-03-19T04:45:52.543Z,29.57
2023-03-19T04:46:54.525Z,30.82
2023-03-19T04:47:56.824Z,28.98
2023-03-19T04:48:59.898Z,29.40
2023-03-19T04:50:02.755Z,29.85
2023-03-19T04:51:04.820Z,29.88
2023-03-19T04:52:06.736Z,29.83
2023-03-19T04:53:09.056Z,29.45
2023-03-19T04:54:11.054Z,28.35
2023-03-19T04:55:13.236Z,30.10
2023-03-19T04:56:16.534Z,28.78
2023-03-19T04:57:18.337Z,28.75
2023-03-19T04:58:20.276Z,28.65
2023-03-19T04:59:23.172Z,29.57
2023-03-19T05:00:25.151Z,28.27
2023-03-19T05:01:27.281Z,28.58
2023-03-19T05:02:29.106Z,29.45
2023-03-19T05:03:31.786Z,29.62
2023-03-19T05:04:33.764Z,30.17
2023-03-19T05:05:35.821Z,32.35
2023-03-19T05:06:38.283Z,33.48
2023-03-19T05:07:42.276Z,32.92
2023-03-19T05:08:44.058Z,33.95
2023-03-19T05:09:47.836Z,33.03
2023-03-19T05:10:49.596Z,29.78
2023-03-19T05:11:51.751Z,30.57
2023-03-19T05:12:53.546Z,32.28
2023-03-19T05:13:55.324Z,33.62
2023-03-19T05:14:57.158Z,34.18
2023-03-19T05:15:59.453Z,33.90
2023-03-19T05:17:01.531Z,35.02
2023-03-19T05:18:03.323Z,41.90
2023-03-19T05:19:05.150Z,42.12
2023-03-19T05:20:08.100Z,38.07
2023-03-19T05:21:12.313Z,36.93
2023-03-19T05:22:14.138Z,37.63
2023-03-19T05:23:15.954Z,36.70
2023-03-19T05:24:17.748Z,39.03
2023-03-19T05:25:19.570Z,39.45
2023-03-19T05:26:21.540Z,40.38
2023-03-19T05:27:23.321Z,41.17
2023-03-19T05:28:25.175Z,50.37
2023-03-19T05:29:27.170Z,51.48
2023-03-19T05:30:29.544Z,48.20
2023-03-19T05:31:31.600Z,43.22
2023-03-19T05:32:34.043Z,38.77
2023-03-19T05:33:35.984Z,40.80
2023-03-19T05:34:37.894Z,38.62
2023-03-19T05:35:39.791Z,39.02
2023-03-19T05:36:41.555Z,40.40
2023-03-19T05:37:43.493Z,37.83
2023-03-19T05:38:45.256Z,36.95
2023-03-19T05:39:47.107Z,34.25
2023-03-19T05:40:48.952Z,26.27
2023-03-19T05:41:50.853Z,23.88
2023-03-19T05:42:52.615Z,23.47
2023-03-19T05:43:54.459Z,23.05
2023-03-19T05:44:56.390Z,23.50
2023-03-19T05:45:59.036Z,21.88
2023-03-19T05:47:01.113Z,22.05
2023-03-19T05:48:03.927Z,22.73
2023-03-19T05:49:06.032Z,22.37
2023-03-19T05:50:08.256Z,21.92
2023-03-19T05:51:10.131Z,22.72
2023-03-19T05:52:12.118Z,21.48
2023-03-19T05:53:13.936Z,22.28
2023-03-19T05:54:16.287Z,21.77
2023-03-19T05:55:18.092Z,22.18
2023-03-19T05:56:20.170Z,21.50
2023-03-19T05:57:22.128Z,21.37
2023-03-19T05:58:23.973Z,21.98
2023-03-19T05:59:25.944Z,20.73
2023-03-19T06:00:28.102Z,20.85
2023-03-19T06:01:30.269Z,21.18
2023-03-19T06:02:32.752Z,21.75
2023-03-19T06:03:34.703Z,22.75
2023-03-19T06:04:36.695Z,24.43
2023-03-19T06:05:38.456Z,24.70
2023-03-19T06:06:40.255Z,26.70
2023-03-19T06:07:43.298Z,28.50
2023-03-19T06:08:45.285Z,29.73
2023-03-19T06:09:47.002Z,29.87
2023-03-19T06:10:48.959Z,27.37
2023-03-19T06:11:50.788Z,28.18
2023-03-19T06:12:52.653Z,29.75
2023-03-19T06:13:54.436Z,31.48
2023-03-19T06:14:56.745Z,30.67
2023-03-19T06:15:58.716Z,29.53
2023-03-19T06:17:00.848Z,29.40
2023-03-19T06:18:02.830Z,26.77
2023-03-19T06:19:04.608Z,26.27
2023-03-19T06:20:06.816Z,26.38
2023-03-19T06:21:08.616Z,26.98
2023-03-19T06:22:10.808Z,27.30
2023-03-19T06:23:15.152Z,27.02
2023-03-19T06:24:18.043Z,27.13
2023-03-19T06:25:20.074Z,26.80
2023-03-19T06:26:22.340Z,26.27
2023-03-19T06:27:24.138Z,25.88
2023-03-19T06:28:26.212Z,25.87
2023-03-19T06:29:28.105Z,25.10
2023-03-19T06:30:29.840Z,25.65
2023-03-19T06:31:31.908Z,25.48
2023-03-19T06:32:33.940Z,24.07
2023-03-19T06:33:37.093Z,24.93
2023-03-19T06:34:38.921Z,25.85
2023-03-19T06:35:41.550Z,25.08
2023-03-19T06:36:43.800Z,25.12
2023-03-19T06:37:45.659Z,25.23
2023-03-19T06:38:47.473Z,24.42
2023-03-19T06:39:49.796Z,25.52
2023-03-19T06:40:51.673Z,24.98
2023-03-19T06:41:53.686Z,24.95
2023-03-19T06:42:55.724Z,25.45
2023-03-19T06:43:57.794Z,25.48
2023-03-19T06:44:59.678Z,25.22
2023-03-19T06:46:01.642Z,26.58
2023-03-19T06:47:03.574Z,27.83
2023-03-19T06:48:05.901Z,27.82
2023-03-19T06:49:07.944Z,27.78
2023-03-19T06:50:11.309Z,26.83
2023-03-19T06:51:13.204Z,26.05
2023-03-19T06:52:15.595Z,27.65
2023-03-19T06:53:17.441Z,27.25
2023-03-19T06:54:19.254Z,28.30
2023-03-19T06:55:21.130Z,28.20
2023-03-19T06:56:22.950Z,28.07
2023-03-19T06:57:24.813Z,26.38
2023-03-19T06:58:27.142Z,26.37
2023-03-19T06:59:28.966Z,24.70
2023-03-19T07:00:30.811Z,26.48
2023-03-19T07:01:32.935Z,26.42
2023-03-19T07:02:35.505Z,27.15
2023-03-19T07:03:37.786Z,26.38
2023-03-19T07:04:40.199Z,26.37
2023-03-19T07:05:42.081Z,26.40
2023-03-19T07:06:43.950Z,25.02
2023-03-19T07:07:45.729Z,25.40
2023-03-19T07:08:47.560Z,26.73
2023-03-19T07:09:49.445Z,28.20
2023-03-19T07:10:51.303Z,28.80
2023-03-19T07:11:54.083Z,27.15
2023-03-19T07:12:56.236Z,27.47
2023-03-19T07:13:58.147Z,26.75
2023-03-19T07:14:59.933Z,26.15
2023-03-19T07:16:01.736Z,26.92
2023-03-19T07:17:03.694Z,27.65
2023-03-19T07:18:05.718Z,28.67
2023-03-19T07:19:07.538Z,28.63
2023-03-19T07:20:10.045Z,27.93
2023-03-19T07:21:11.899Z,28.92
2023-03-19T07:22:13.728Z,28.88
2023-03-19T07:23:15.542Z,29.93
2023-03-19T07:24:17.341Z,29.87
2023-03-19T07:25:19.145Z,29.23
2023-03-19T07:26:21.019Z,29.13
2023-03-19T07:27:22.943Z,29.03
2023-03-19T07:28:24.788Z,28.93
2023-03-19T07:29:27.041Z,28.47
2023-03-19T07:30:28.915Z,27.40
2023-03-19T07:31:31.417Z,27.28
2023-03-19T07:32:33.343Z,27.13
2023-03-19T07:33:35.825Z,25.63
2023-03-19T07:34:37.872Z,25.82
2023-03-19T07:35:39.726Z,25.38
2023-03-19T07:36:41.703Z,26.60
2023-03-19T07:37:43.837Z,25.35
2023-03-19T07:38:45.781Z,25.75
2023-03-19T07:39:47.932Z,25.95
2023-03-19T07:41:01.263Z,25.75
2023-03-19T07:42:04.741Z,25.63
2023-03-19T07:43:06.781Z,27.48
2023-03-19T07:44:08.811Z,26.38
2023-03-19T07:45:10.811Z,26.02
2023-03-19T07:46:12.832Z,26.85
2023-03-19T07:47:26.347Z,25.48
2023-03-19T07:48:30.606Z,26.62
2023-03-19T07:49:32.561Z,27.05
2023-03-19T07:50:35.679Z,26.72
2023-03-19T07:51:37.678Z,26.75
2023-03-19T07:52:39.791Z,26.57
2023-03-19T07:53:41.653Z,25.60
2023-03-19T07:54:43.975Z,25.75
2023-03-19T07:55:46.047Z,26.53
2023-03-19T07:56:47.925Z,26.60
2023-03-19T07:57:50.120Z,26.72
2023-03-19T07:58:52.011Z,25.03
2023-03-19T07:59:54.446Z,26.08
2023-03-19T08:00:56.306Z,27.32
2023-03-19T08:01:58.095Z,27.68
2023-03-19T08:03:00.210Z,26.02
2023-03-19T08:04:02.337Z,25.80
2023-03-19T08:05:05.346Z,27.67
2023-03-19T08:06:07.288Z,28.65
2023-03-19T08:07:11.184Z,27.03
2023-03-19T08:08:13.025Z,28.35
2023-03-19T08:09:15.113Z,27.28
2023-03-19T08:10:17.562Z,26.72
2023-03-19T08:11:19.289Z,26.33
2023-03-19T08:12:21.353Z,26.87
2023-03-19T08:13:23.266Z,25.90
2023-03-19T08:14:25.236Z,25.80
2023-03-19T08:15:27.365Z,26.27
2023-03-19T08:16:29.241Z,25.12
2023-03-19T08:17:31.404Z,24.43
2023-03-19T08:18:33.962Z,24.73
2023-03-19T08:19:36.221Z,23.97
2023-03-19T08:20:38.126Z,24.12
2023-03-19T08:21:39.928Z,24.12
2023-03-19T08:22:42.004Z,25.17
2023-03-19T08:23:44.162Z,24.32
2023-03-19T08:24:45.922Z,23.82
2023-03-19T08:25:48.592Z,23.85
2023-03-19T08:26:50.745Z,23.95
2023-03-19T08:27:52.607Z,23.30
2023-03-19T08:28:55.251Z,23.83
2023-03-19T08:29:58.809Z,24.05
2023-03-19T08:31:07.473Z,23.22
2023-03-19T08:32:09.633Z,23.70
2023-03-19T08:33:11.727Z,23.40
2023-03-19T08:34:13.670Z,22.50
2023-03-19T08:35:16.203Z,22.52
2023-03-19T08:36:18.318Z,21.83
2023-03-19T08:37:20.264Z,20.68
2023-03-19T08:38:22.510Z,20.98
2023-03-19T08:39:24.436Z,20.27
2023-03-19T08:40:26.771Z,20.53
2023-03-19T08:41:28.658Z,20.33
2023-03-19T08:42:30.589Z,19.25
2023-03-19T08:43:33.841Z,19.17
2023-03-19T08:44:35.647Z,17.63
2023-03-19T08:45:37.435Z,18.07
2023-03-19T08:46:39.922Z,16.77
2023-03-19T08:47:43.303Z,16.12
2023-03-19T08:48:45.252Z,14.83
2023-03-19T08:49:47.086Z,15.47
2023-03-19T08:50:56.562Z,16.48
2023-03-19T08:51:58.542Z,15.97
2023-03-19T08:53:00.434Z,15.53
2023-03-19T08:54:02.272Z,15.08
2023-03-19T08:55:04.698Z,15.78
2023-03-19T08:56:10.261Z,16.22
2023-03-19T08:57:12.085Z,15.17
2023-03-19T08:58:13.913Z,13.57
2023-03-19T08:59:16.652Z,13.30
2023-03-19T09:00:19.543Z,13.62
2023-03-19T09:01:21.445Z,13.32
2023-03-19T09:02:24.158Z,12.78
2023-03-19T09:03:26.260Z,12.15
2023-03-19T09:04:28.718Z,11.85
2023-03-19T09:05:30.490Z,11.58
2023-03-19T09:06:32.264Z,11.33
2023-03-19T09:07:34.139Z,10.98
2023-03-19T09:08:37.205Z,10.92
2023-03-19T09:09:40.508Z,11.85
2023-03-19T09:10:42.473Z,13.10
2023-03-19T09:11:44.606Z,12.20
2023-03-19T09:12:48.474Z,12.20
2023-03-19T09:13:50.586Z,12.43
2023-03-19T09:14:52.729Z,11.88
2023-03-19T09:15:54.868Z,12.68
2023-03-19T09:16:57.251Z,12.02
2023-03-19T09:17:59.290Z,12.23
2023-03-19T09:19:01.260Z,11.80
2023-03-19T09:20:03.665Z,11.67
2023-03-19T09:21:05.966Z,11.92
2023-03-19T09:22:07.800Z,11.70
2023-03-19T09:23:09.695Z,12.15
2023-03-19T09:24:11.588Z,11.35
2023-03-19T09:25:13.526Z,11.32
2023-03-19T09:26:15.336Z,10.88
2023-03-19T09:27:17.435Z,11.23
2023-03-19T09:28:19.684Z,11.82
2023-03-19T09:29:21.915Z,10.85
2023-03-19T09:30:23.787Z,11.38
2023-03-19T09:31:28.027Z,11.45
2023-03-19T09:32:31.440Z,10.73
2023-03-19T09:33:33.559Z,10.92
2023-03-19T09:34:35.722Z,10.70
2023-03-19T09:35:39.755Z,10.45
2023-03-19T09:36:41.626Z,10.63
2023-03-19T09:37:43.389Z,10.27
2023-03-19T09:38:46.531Z,9.93
2023-03-19T09:39:48.490Z,10.32
2023-03-19T09:41:10.850Z,10.42
2023-03-19T09:42:34.010Z,10.40
2023-03-19T09:44:02.030Z,9.87
2023-03-19T09:45:04.521Z,10.25
2023-03-19T09:46:16.741Z,9.52
2023-03-19T09:47:33.497Z,9.57
2023-03-19T09:48:50.573Z,9.62
2023-03-19T09:49:54.159Z,10.58
2023-03-19T09:50:56.608Z,10.07
2023-03-19T09:52:09.433Z,10.05
2023-03-19T09:53:42.990Z,9.60
2023-03-19T09:54:48.336Z,10.47
2023-03-19T09:55:52.774Z,9.62
2023-03-19T09:56:55.857Z,10.28
2023-03-19T09:57:58.950Z,9.77
2023-03-19T09:59:01.197Z,10.40
2023-03-19T10:00:12.878Z,10.63
2023-03-19T10:01:27.727Z,9.65
2023-03-19T10:02:42.801Z,10.00
2023-03-19T10:04:09.633Z,9.65
2023-03-19T10:05:25.938Z,10.57
2023-03-19T10:06:29.578Z,10.15
2023-03-19T10:07:34.160Z,10.63
2023-03-19T10:09:29.553Z,10.82
2023-03-19T10:11:02.988Z,10.37
2023-03-19T10:12:20.505Z,11.53
2023-03-19T10:13:31.281Z,11.62
2023-03-19T10:16:25.438Z,11.18
2023-03-19T10:17:54.762Z,11.10
2023-03-19T10:19:03.846Z,11.38
2023-03-19T10:20:12.768Z,11.58
2023-03-19T10:21:35.625Z,12.08
2023-03-19T10:22:47.491Z,13.02
2023-03-19T10:23:59.385Z,13.08
2023-03-19T10:25:03.031Z,13.35
2023-03-19T10:26:08.953Z,12.52
2023-03-19T10:27:20.347Z,12.53
2023-03-19T10:28:23.034Z,12.98
2023-03-19T10:29:25.107Z,12.73
2023-03-19T10:30:29.557Z,13.32
2023-03-19T10:31:45.384Z,12.75
2023-03-19T10:32:55.018Z,12.17
2023-03-19T10:34:07.377Z,13.85
2023-03-19T10:35:22.121Z,13.80
2023-03-19T10:36:27.842Z,13.78
2023-03-19T10:37:30.272Z,13.45
2023-03-19T10:38:33.594Z,12.83
2023-03-19T10:39:37.268Z,12.33
2023-03-19T10:40:50.826Z,12.77
2023-03-19T10:42:13.968Z,13.03
2023-03-19T10:43:17.158Z,13.68
2023-03-19T10:44:29.425Z,12.83
2023-03-19T10:45:34.169Z,13.22
2023-03-19T10:46:40.506Z,13.52
2023-03-19T10:47:43.368Z,13.13
2023-03-19T10:48:46.680Z,13.08
2023-03-19T10:49:50.854Z,13.17
2023-03-19T10:51:06.009Z,13.03
2023-03-19T10:52:24.532Z,13.12
2023-03-19T10:53:31.717Z,12.65
2023-03-19T10:54:33.517Z,12.88
2023-03-19T10:55:36.433Z,13.22
2023-03-19T10:56:46.221Z,12.43
2023-03-19T10:57:50.990Z,13.35
2023-03-19T10:59:32.917Z,13.35
2023-03-19T11:00:35.612Z,12.22
2023-03-19T11:01:41.779Z,11.53
2023-03-19T11:02:49.669Z,11.80
2023-03-19T11:03:56.269Z,11.37
2023-03-19T11:05:08.673Z,11.92
2023-03-19T11:06:17.709Z,10.77
2023-03-19T11:07:21.657Z,11.08
2023-03-19T11:08:35.262Z,11.38
2023-03-19T11:09:40.237Z,10.43
2023-03-19T11:10:47.693Z,10.15
2023-03-19T11:12:06.706Z,10.10
2023-03-19T11:13:26.162Z,9.87
2023-03-19T11:14:37.238Z,9.40
2023-03-19T11:15:39.456Z,9.67
2023-03-19T11:17:07.497Z,9.75
2023-03-19T11:18:20.015Z,10.52
2023-03-19T11:19:34.361Z,9.63
2023-03-19T11:20:38.587Z,10.05
2023-03-19T11:21:40.514Z,9.53
2023-03-19T11:22:42.904Z,9.07
2023-03-19T11:23:44.892Z,9.28
2023-03-19T11:24:55.628Z,9.50
2023-03-19T11:26:03.734Z,9.85
2023-03-19T11:27:06.407Z,8.98
2023-03-19T11:28:21.237Z,9.55
2023-03-19T11:29:26.921Z,9.50
2023-03-19T11:30:39.031Z,9.50
2023-03-19T11:31:50.748Z,8.95
2023-03-19T11:33:05.647Z,8.17
2023-03-19T11:34:17.508Z,8.68
2023-03-19T11:35:26.488Z,8.25
2023-03-19T11:36:59.990Z,8.60
2023-03-19T11:38:04.169Z,8.75
2023-03-19T11:39:21.040Z,8.13
2023-03-19T11:40:54.925Z,8.37
2023-03-19T11:42:28.978Z,8.93
2023-03-19T11:44:02.566Z,8.75
2023-03-19T11:45:40.765Z,8.83
2023-03-19T11:46:54.245Z,9.35
2023-03-19T11:48:23.660Z,9.17
2023-03-19T11:49:31.852Z,8.45
2023-03-19T11:50:41.175Z,8.53
2023-03-19T11:52:00.801Z,7.60
2023-03-19T11:53:18.762Z,8.45
2023-03-19T11:54:40.319Z,8.12
2023-03-19T11:56:19.771Z,8.30
2023-03-19T11:57:48.963Z,8.02
2023-03-19T11:59:25.719Z,7.97
2023-03-19T12:00:31.424Z,8.17
2023-03-19T12:01:49.148Z,8.42
2023-03-19T12:03:28.545Z,8.43
2023-03-19T12:04:49.417Z,7.95
2023-03-19T12:06:07.346Z,8.03
2023-03-19T12:07:21.476Z,7.62
2023-03-19T12:08:52.270Z,7.12
2023-03-19T12:10:23.583Z,8.22
2023-03-19T12:11:54.604Z,7.55
2023-03-19T12:13:05.916Z,8.70
2023-03-19T12:14:26.788Z,8.02
2023-03-19T12:15:52.709Z,8.52
2023-03-19T12:16:55.927Z,8.92
2023-03-19T12:17:59.636Z,8.80
2023-03-19T12:19:23.882Z,7.88
2023-03-19T12:20:32.533Z,8.17
2023-03-19T12:21:49.716Z,8.73
2023-03-19T12:23:00.458Z,8.58
2023-03-19T12:24:18.287Z,8.67
2023-03-19T12:25:41.778Z,8.90
2023-03-19T12:27:04.250Z,9.10
2023-03-19T12:28:29.736Z,10.53
2023-03-19T12:29:40.554Z,10.68
2023-03-19T12:30:47.209Z,9.88
2023-03-19T12:32:07.479Z,8.85
2023-03-19T12:33:15.290Z,8.53
2023-03-19T12:34:36.111Z,7.85
2023-03-19T12:35:41.984Z,8.23
2023-03-19T12:36:51.128Z,7.33
2023-03-19T12:38:11.612Z,7.02
2023-03-19T12:39:19.513Z,7.80
2023-03-19T12:40:37.766Z,8.27
2023-03-19T12:41:43.071Z,8.47
2023-03-19T12:42:45.365Z,7.85
2023-03-19T12:43:59.353Z,8.20
2023-03-19T12:45:04.893Z,7.78
2023-03-19T12:46:13.434Z,8.42
2023-03-19T12:47:31.022Z,7.68
2023-03-19T12:48:43.300Z,7.25
2023-03-19T12:50:07.308Z,7.70
2023-03-19T12:51:12.566Z,7.17
2023-03-19T12:52:20.683Z,7.23
2023-03-19T12:53:40.002Z,8.07
2023-03-19T12:54:51.858Z,8.07
2023-03-19T12:55:58.076Z,7.73
2023-03-19T12:57:07.287Z,7.35
2023-03-19T12:58:24.687Z,7.22
2023-03-19T12:59:51.278Z,8.30
2023-03-19T13:01:07.492Z,7.05
2023-03-19T13:02:41.437Z,7.57
2023-03-19T13:04:14.598Z,7.43
2023-03-19T13:05:31.799Z,7.62
2023-03-19T13:06:41.459Z,7.58
2023-03-19T13:08:03.894Z,7.72
2023-03-19T13:09:25.115Z,7.67
2023-03-19T13:10:31.689Z,7.83
2023-03-19T13:11:49.970Z,7.38
2023-03-19T13:12:53.974Z,7.87
2023-03-19T13:14:30.710Z,7.73
2023-03-19T13:15:43.520Z,7.80
2023-03-19T13:16:56.770Z,7.32
2023-03-19T13:18:14.603Z,7.38
2023-03-19T13:19:30.654Z,8.13
2023-03-19T13:20:55.779Z,7.62
2023-03-19T13:22:06.786Z,7.30
2023-03-19T13:23:14.060Z,6.80
2023-03-19T13:24:16.504Z,7.42
2023-03-19T13:25:26.351Z,7.48
2023-03-19T13:26:28.427Z,7.40
2023-03-19T13:27:32.972Z,7.65
2023-03-19T13:28:37.524Z,8.22
2023-03-19T13:29:53.693Z,8.15
2023-03-19T13:31:01.382Z,7.18
2023-03-19T13:32:10.164Z,7.45
2023-03-19T13:33:22.422Z,7.07
2023-03-19T13:34:29.761Z,7.43
2023-03-19T13:35:54.880Z,7.52
2023-03-19T13:37:04.917Z,7.97
2023-03-19T13:38:21.173Z,8.03
2023-03-19T13:39:28.272Z,7.12
2023-03-19T13:40:40.711Z,7.15
2023-03-19T13:41:42.742Z,7.02
2023-03-19T13:42:44.693Z,7.48
2023-03-19T13:43:53.303Z,7.22
2023-03-19T13:45:03.845Z,6.75
2023-03-19T13:46:12.365Z,7.53
2023-03-19T13:47:26.577Z,7.12
2023-03-19T13:48:28.761Z,7.57
2023-03-19T13:49:35.613Z,7.85
2023-03-19T13:50:54.879Z,7.35
2023-03-19T13:52:01.551Z,7.77
2023-03-19T13:53:21.730Z,7.90
2023-03-19T13:54:34.342Z,7.10
2023-03-19T13:55:54.671Z,7.00
2023-03-19T13:57:03.332Z,7.37
2023-03-19T13:58:12.577Z,7.38
2023-03-19T13:59:17.237Z,7.90
2023-03-19T14:00:46.962Z,7.35
2023-03-19T14:01:48.766Z,7.22
2023-03-19T14:02:53.819Z,7.73
2023-03-19T14:04:03.155Z,7.17
2023-03-19T14:05:17.782Z,7.28
2023-03-19T14:06:41.633Z,7.48
2023-03-19T14:07:51.261Z,7.42
2023-03-19T14:08:53.420Z,7.90
2023-03-19T14:09:58.304Z,7.63
2023-03-19T14:11:01.879Z,7.22
2023-03-19T14:12:36.732Z,8.17
2023-03-19T14:13:42.143Z,9.32